Time;durP1;ratioP1;P1;durP2;ratioP2;P2;SDS_P1;SDS_P2;PMS_P1;PMS_P2;Temp;Humidity;BMP_temperature;BMP_pressure;BME280_temperature;BME280_humidity;BME280_pressure;Samples;Min_cycle;Max_cycle;Signal;HPM_P1;HPM_P2
2022/03/10 00:01:58;;;;;;;6.50;5.90;;;;;;;;;;5001975;28;20451;-61
2022/03/10 00:04:24;;;;;;;4.35;3.95;;;;;;;;;;5000530;28;20057;-60
2022/03/10 00:06:49;;;;;;;6.70;6.10;;;;;;;;;;5003600;28;20037;-62
2022/03/10 00:09:14;;;;;;;6.30;5.78;;;;;;;;;;4999299;28;20029;-60
2022/03/10 00:11:40;;;;;;;5.05;4.65;;;;;;;;;;4998145;28;20380;-61
2022/03/10 00:14:05;;;;;;;5.47;5.03;;;;;;;;;;4999887;28;20026;-60
2022/03/10 00:16:31;;;;;;;5.68;5.13;;;;;;;;;;5000605;28;20026;-61
2022/03/10 00:18:56;;;;;;;5.75;5.25;;;;;;;;;;5001753;28;20084;-60
2022/03/10 00:21:21;;;;;;;5.90;4.53;;;;;;;;;;4999662;28;20030;-61
2022/03/10 00:23:47;;;;;;;5.70;5.10;;;;;;;;;;4997788;28;20034;-61
2022/03/10 00:26:12;;;;;;;5.57;5.07;;;;;;;;;;4999717;28;20089;-61
2022/03/10 00:28:37;;;;;;;5.47;5.00;;;;;;;;;;4998984;28;20038;-61
2022/03/10 00:31:03;;;;;;;4.70;4.30;;;;;;;;;;4997960;28;20121;-61
2022/03/10 00:33:28;;;;;;;6.47;5.22;;;;;;;;;;4996539;28;20072;-62
2022/03/10 00:35:54;;;;;;;4.80;4.40;;;;;;;;;;4998174;28;20049;-59
2022/03/10 00:38:19;;;;;;;6.13;4.88;;;;;;;;;;4999011;28;20032;-62
2022/03/10 00:40:45;;;;;;;6.80;5.53;;;;;;;;;;4998801;28;20750;-62
2022/03/10 00:43:11;;;;;;;7.15;5.78;;;;;;;;;;5001352;28;20026;-61
2022/03/10 00:45:37;;;;;;;7.40;6.38;;;;;;;;;;4996583;28;20036;-59
2022/03/10 00:48:02;;;;;;;5.30;4.85;;;;;;;;;;4998762;28;20022;-61
2022/03/10 00:50:28;;;;;;;5.50;5.00;;;;;;;;;;4998857;28;20029;-62
2022/03/10 00:52:53;;;;;;;5.07;4.68;;;;;;;;;;4998113;28;20038;-61
2022/03/10 00:55:19;;;;;;;5.05;4.65;;;;;;;;;;5004452;28;20029;-61
2022/03/10 00:57:46;;;;;;;5.80;5.20;;;;;;;;;;5000395;28;20096;-61
2022/03/10 01:00:12;;;;;;;7.70;5.07;;;;;;;;;;5000139;28;20098;-62
2022/03/10 01:02:37;;;;;;;10.25;4.80;;;;;;;;;;4997448;28;20514;-61
2022/03/10 01:05:04;;;;;;;4.75;4.35;;;;;;;;;;5001561;28;20088;-61
2022/03/10 01:07:29;;;;;;;5.38;4.97;;;;;;;;;;4996286;28;20030;-61
2022/03/10 01:09:55;;;;;;;5.50;4.82;;;;;;;;;;4998034;28;20108;-59
2022/03/10 01:12:20;;;;;;;6.35;5.10;;;;;;;;;;4997602;28;20050;-61
2022/03/10 01:14:45;;;;;;;5.90;4.82;;;;;;;;;;4997387;28;20080;-60
2022/03/10 01:17:11;;;;;;;5.32;4.78;;;;;;;;;;5000029;28;20040;-61
2022/03/10 01:19:37;;;;;;;4.93;4.53;;;;;;;;;;4996715;28;20053;-60
2022/03/10 01:22:02;;;;;;;6.38;5.78;;;;;;;;;;4999432;28;20062;-60
2022/03/10 01:24:28;;;;;;;5.45;4.97;;;;;;;;;;4998333;28;20042;-60
2022/03/10 01:26:53;;;;;;;6.13;5.53;;;;;;;;;;4999711;28;20047;-60
2022/03/10 01:29:19;;;;;;;5.90;4.65;;;;;;;;;;4997198;28;20473;-62
2022/03/10 01:31:45;;;;;;;6.03;5.38;;;;;;;;;;4996587;28;20034;-61
2022/03/10 01:34:10;;;;;;;5.80;5.20;;;;;;;;;;4998605;28;20141;-60
2022/03/10 01:36:35;;;;;;;5.28;4.78;;;;;;;;;;4996887;28;20065;-60
2022/03/10 01:39:04;;;;;;;4.68;4.28;;;;;;;;;;4998819;28;20874;-60
2022/03/10 01:41:32;;;;;;;5.15;4.68;;;;;;;;;;4997474;28;20026;-61
2022/03/10 01:44:08;;;;;;;4.55;4.15;;;;;;;;;;4996207;28;20122;-60
2022/03/10 01:46:34;;;;;;;5.13;4.72;;;;;;;;;;4995281;28;20026;-60
2022/03/10 01:49:01;;;;;;;4.82;4.43;;;;;;;;;;4997770;28;20056;-61
2022/03/10 01:51:28;;;;;;;5.78;5.20;;;;;;;;;;4994361;28;20026;-61
2022/03/10 01:53:53;;;;;;;7.13;5.30;;;;;;;;;;4998916;28;20637;-61
2022/03/10 01:56:22;;;;;;;6.07;5.57;;;;;;;;;;5001491;28;20157;-62
2022/03/10 01:58:49;;;;;;;5.22;4.72;;;;;;;;;;4995198;28;20089;-61
2022/03/10 02:01:16;;;;;;;5.47;4.97;;;;;;;;;;4999273;28;20498;-61
2022/03/10 02:03:42;;;;;;;5.78;5.22;;;;;;;;;;5000015;28;20416;-62
2022/03/10 02:06:09;;;;;;;5.38;4.88;;;;;;;;;;5000891;28;20479;-61
2022/03/10 02:11:20;;;;;;;4.50;4.10;;;;;;;;;;4998250;28;20026;-62
2022/03/10 02:13:45;;;;;;;5.25;4.75;;;;;;;;;;4998217;28;20026;-61
2022/03/10 02:18:57;;;;;;;6.10;5.53;;;;;;;;;;5002529;28;20394;-60
2022/03/10 02:21:22;;;;;;;6.25;5.65;;;;;;;;;;4989582;28;20026;-60
2022/03/10 02:23:48;;;;;;;7.60;5.25;;;;;;;;;;5003139;28;20171;-60
2022/03/10 02:26:14;;;;;;;5.05;4.55;;;;;;;;;;4999832;28;20030;-60
2022/03/10 02:28:41;;;;;;;5.97;5.38;;;;;;;;;;5001035;28;20506;-60
2022/03/10 02:31:06;;;;;;;5.07;4.65;;;;;;;;;;4998064;28;20065;-60
2022/03/10 02:33:32;;;;;;;6.18;5.55;;;;;;;;;;4998753;28;20030;-60
2022/03/10 02:35:58;;;;;;;5.93;5.30;;;;;;;;;;4998474;28;20042;-60
2022/03/10 02:38:23;;;;;;;4.82;4.43;;;;;;;;;;5003757;28;21797;-59
2022/03/10 02:40:50;;;;;;;6.32;4.57;;;;;;;;;;5003011;28;20058;-59
2022/03/10 02:43:16;;;;;;;4.18;3.78;;;;;;;;;;5000678;28;20052;-60
2022/03/10 02:45:42;;;;;;;6.18;5.50;;;;;;;;;;4998180;28;20477;-59
2022/03/10 02:48:08;;;;;;;4.63;4.22;;;;;;;;;;5000627;28;20136;-60
2022/03/10 02:50:33;;;;;;;6.10;5.43;;;;;;;;;;5001534;28;20065;-59
2022/03/10 02:52:59;;;;;;;5.63;5.13;;;;;;;;;;5000674;28;20030;-59
2022/03/10 02:55:24;;;;;;;5.18;4.68;;;;;;;;;;4999408;28;20034;-59
2022/03/10 02:57:50;;;;;;;4.90;4.43;;;;;;;;;;4998849;28;20033;-59
2022/03/10 03:00:16;;;;;;;4.78;4.38;;;;;;;;;;4998461;28;20038;-60
2022/03/10 03:02:42;;;;;;;5.22;4.72;;;;;;;;;;4999368;28;20053;-59
2022/03/10 03:05:09;;;;;;;4.95;4.55;;;;;;;;;;5008417;28;20103;-60
2022/03/10 03:07:34;;;;;;;5.05;4.50;;;;;;;;;;5000702;28;20934;-59
2022/03/10 03:10:00;;;;;;;5.72;5.20;;;;;;;;;;5003307;28;20124;-59
2022/03/10 03:12:26;;;;;;;7.00;5.20;;;;;;;;;;5002129;28;20073;-60
2022/03/10 03:14:52;;;;;;;5.55;5.05;;;;;;;;;;5001449;28;20121;-59
2022/03/10 03:17:17;;;;;;;5.53;5.03;;;;;;;;;;4999052;28;20038;-59
2022/03/10 03:19:42;;;;;;;5.80;5.30;;;;;;;;;;5001102;28;20037;-59
2022/03/10 03:22:08;;;;;;;5.18;4.75;;;;;;;;;;4998572;28;20026;-60
2022/03/10 03:24:33;;;;;;;5.03;4.60;;;;;;;;;;4999774;28;20038;-60
2022/03/10 03:26:59;;;;;;;4.97;4.47;;;;;;;;;;4999854;28;20664;-60
2022/03/10 03:29:24;;;;;;;5.35;4.65;;;;;;;;;;4999639;28;20247;-60
2022/03/10 03:31:50;;;;;;;5.93;5.38;;;;;;;;;;4999333;28;20053;-60
2022/03/10 03:34:15;;;;;;;5.85;5.35;;;;;;;;;;4996644;28;20038;-60
2022/03/10 03:36:42;;;;;;;7.60;4.75;;;;;;;;;;4999340;28;20026;-60
2022/03/10 03:39:08;;;;;;;7.03;5.70;;;;;;;;;;4997735;28;20077;-60
2022/03/10 03:41:34;;;;;;;7.18;5.68;;;;;;;;;;5001605;28;20022;-60
2022/03/10 03:44:00;;;;;;;5.05;4.60;;;;;;;;;;5000757;28;20279;-60
2022/03/10 03:46:25;;;;;;;5.68;5.18;;;;;;;;;;5001711;28;20057;-60
2022/03/10 03:48:51;;;;;;;5.63;5.13;;;;;;;;;;4999951;28;20041;-60
2022/03/10 03:51:16;;;;;;;9.05;6.00;;;;;;;;;;5000575;28;20022;-60
2022/03/10 03:53:42;;;;;;;5.82;5.28;;;;;;;;;;5000435;28;20036;-60
2022/03/10 03:56:07;;;;;;;5.88;5.38;;;;;;;;;;5002055;28;20034;-59
2022/03/10 03:58:33;;;;;;;6.22;5.72;;;;;;;;;;4997661;28;20770;-59
2022/03/10 04:00:58;;;;;;;4.95;4.55;;;;;;;;;;5000392;28;20021;-60
2022/03/10 04:03:23;;;;;;;5.57;5.07;;;;;;;;;;5000613;28;20018;-60
2022/03/10 04:05:49;;;;;;;8.18;5.53;;;;;;;;;;4998741;28;20029;-60
2022/03/10 04:08:14;;;;;;;5.18;4.68;;;;;;;;;;4999659;28;20097;-60
2022/03/10 04:10:40;;;;;;;5.88;5.43;;;;;;;;;;4999423;28;20042;-60
2022/03/10 04:13:05;;;;;;;5.72;5.13;;;;;;;;;;4999046;28;20117;-61
2022/03/10 04:15:34;;;;;;;5.53;4.95;;;;;;;;;;4998297;28;20038;-61
2022/03/10 04:18:01;;;;;;;5.00;4.50;;;;;;;;;;4999407;28;20029;-61
2022/03/10 04:20:26;;;;;;;6.13;5.47;;;;;;;;;;4998879;28;20030;-61
2022/03/10 04:22:52;;;;;;;6.82;6.15;;;;;;;;;;4999187;28;20746;-61
2022/03/10 04:25:17;;;;;;;5.93;5.43;;;;;;;;;;4999783;28;20026;-61
2022/03/10 04:27:42;;;;;;;5.50;5.00;;;;;;;;;;4996801;28;20114;-62
2022/03/10 04:30:08;;;;;;;4.90;4.50;;;;;;;;;;4999093;28;20113;-63
2022/03/10 04:32:46;;;;;;;5.97;5.47;;;;;;;;;;4998266;28;20363;-63
2022/03/10 04:35:14;;;;;;;6.00;5.50;;;;;;;;;;4997296;28;20042;-61
2022/03/10 04:37:40;;;;;;;6.00;5.45;;;;;;;;;;4999749;28;20532;-62
2022/03/10 04:40:07;;;;;;;5.13;4.72;;;;;;;;;;4998257;28;20030;-62
2022/03/10 04:42:36;;;;;;;4.82;4.43;;;;;;;;;;4998535;28;20046;-62
2022/03/10 04:45:03;;;;;;;6.10;5.50;;;;;;;;;;4997537;28;20371;-63
2022/03/10 04:47:29;;;;;;;6.32;4.75;;;;;;;;;;4999153;28;20026;-63
2022/03/10 04:49:55;;;;;;;5.00;4.60;;;;;;;;;;5000151;28;20034;-64
2022/03/10 04:52:21;;;;;;;6.90;6.30;;;;;;;;;;5000157;28;20044;-63
2022/03/10 04:54:46;;;;;;;6.35;4.78;;;;;;;;;;4996478;28;20034;-63
2022/03/10 04:57:11;;;;;;;6.82;5.95;;;;;;;;;;4997106;28;20041;-60
2022/03/10 04:59:37;;;;;;;5.07;4.68;;;;;;;;;;5000731;28;20029;-59
2022/03/10 05:02:02;;;;;;;5.68;5.18;;;;;;;;;;5001605;28;20037;-59
2022/03/10 05:04:27;;;;;;;5.05;4.65;;;;;;;;;;4999253;28;20038;-59
2022/03/10 05:06:53;;;;;;;4.60;4.07;;;;;;;;;;4999399;28;20607;-64
2022/03/10 05:09:18;;;;;;;4.43;4.03;;;;;;;;;;4998858;28;20368;-63
2022/03/10 05:11:44;;;;;;;6.10;5.60;;;;;;;;;;5001059;28;20092;-63
2022/03/10 05:14:09;;;;;;;6.22;5.68;;;;;;;;;;5000821;28;20132;-64
2022/03/10 05:16:34;;;;;;;5.72;5.25;;;;;;;;;;5003816;28;20038;-63
2022/03/10 05:19:00;;;;;;;5.50;5.00;;;;;;;;;;4998384;28;20033;-64
2022/03/10 05:21:25;;;;;;;6.78;6.18;;;;;;;;;;4998635;28;20027;-63
2022/03/10 05:23:52;;;;;;;5.15;4.75;;;;;;;;;;4997915;28;20046;-66
2022/03/10 05:26:20;;;;;;;6.40;5.80;;;;;;;;;;4993046;28;20025;-64
2022/03/10 05:28:45;;;;;;;5.43;4.80;;;;;;;;;;5001065;28;20021;-62
2022/03/10 05:31:11;;;;;;;6.82;4.93;;;;;;;;;;4999408;28;20038;-65
2022/03/10 05:33:36;;;;;;;5.50;4.63;;;;;;;;;;4996922;28;20121;-64
2022/03/10 05:36:02;;;;;;;4.53;4.13;;;;;;;;;;4990313;28;20026;-61
2022/03/10 05:38:27;;;;;;;6.10;5.57;;;;;;;;;;4997197;28;20132;-60
2022/03/10 05:40:53;;;;;;;8.50;5.80;;;;;;;;;;4997175;28;20042;-60
2022/03/10 05:43:18;;;;;;;5.10;4.70;;;;;;;;;;4995495;28;20022;-60
2022/03/10 05:45:44;;;;;;;5.72;5.00;;;;;;;;;;4997660;28;20026;-60
2022/03/10 05:48:10;;;;;;;6.57;5.90;;;;;;;;;;4994783;28;20045;-60
2022/03/10 05:50:35;;;;;;;5.90;5.32;;;;;;;;;;4999207;28;20065;-61
2022/03/10 05:53:01;;;;;;;5.93;5.38;;;;;;;;;;5002901;28;20046;-61
2022/03/10 05:55:26;;;;;;;6.97;6.32;;;;;;;;;;5001066;28;20045;-60
2022/03/10 05:57:52;;;;;;;5.05;4.65;;;;;;;;;;4999838;28;20753;-62
2022/03/10 06:00:18;;;;;;;6.45;5.53;;;;;;;;;;5001600;28;20041;-61
2022/03/10 06:02:44;;;;;;;7.10;6.20;;;;;;;;;;5002153;28;20124;-61
2022/03/10 06:05:10;;;;;;;7.85;4.68;;;;;;;;;;5001787;28;20551;-61
2022/03/10 06:07:35;;;;;;;5.50;5.00;;;;;;;;;;5003204;28;20577;-59
2022/03/10 06:10:03;;;;;;;5.65;5.15;;;;;;;;;;5001642;28;20033;-60
2022/03/10 06:12:28;;;;;;;6.55;5.68;;;;;;;;;;5001451;28;20037;-59
2022/03/10 06:14:58;;;;;;;5.75;5.05;;;;;;;;;;4999388;28;20022;-59
2022/03/10 06:17:24;;;;;;;6.05;5.45;;;;;;;;;;5003347;28;20100;-60
2022/03/10 06:19:49;;;;;;;4.63;4.22;;;;;;;;;;4998719;28;20030;-63
2022/03/10 06:22:26;;;;;;;6.80;4.93;;;;;;;;;;5002401;28;20082;-60
2022/03/10 06:24:52;;;;;;;5.35;4.88;;;;;;;;;;5002300;28;20033;-60
2022/03/10 06:27:18;;;;;;;5.63;5.00;;;;;;;;;;5001902;28;20108;-63
2022/03/10 06:29:45;;;;;;;5.38;4.88;;;;;;;;;;5001835;28;20026;-63
2022/03/10 06:32:12;;;;;;;4.57;4.18;;;;;;;;;;5003798;28;20042;-64
2022/03/10 06:34:38;;;;;;;6.30;5.05;;;;;;;;;;5005465;28;20349;-63
2022/03/10 06:37:04;;;;;;;4.60;4.20;;;;;;;;;;5013853;28;20058;-64
2022/03/10 06:39:30;;;;;;;5.25;4.80;;;;;;;;;;5001937;28;20034;-63
2022/03/10 06:41:55;;;;;;;5.72;4.80;;;;;;;;;;5000853;28;20494;-61
2022/03/10 06:44:20;;;;;;;4.72;4.32;;;;;;;;;;4999301;28;20088;-61
2022/03/10 06:46:46;;;;;;;8.18;5.35;;;;;;;;;;5000722;28;20527;-64
2022/03/10 06:49:12;;;;;;;4.28;3.88;;;;;;;;;;5000441;28;20034;-63
2022/03/10 06:51:38;;;;;;;7.13;5.47;;;;;;;;;;5002671;28;20040;-63
2022/03/10 06:54:04;;;;;;;6.10;5.50;;;;;;;;;;4998751;28;20038;-63
2022/03/10 06:56:29;;;;;;;16.35;5.65;;;;;;;;;;4998640;28;20053;-60
2022/03/10 06:58:55;;;;;;;5.68;5.05;;;;;;;;;;5002757;28;20030;-59
2022/03/10 07:01:20;;;;;;;5.53;4.93;;;;;;;;;;4999865;28;20479;-60
2022/03/10 07:03:45;;;;;;;6.40;5.57;;;;;;;;;;5001436;28;20040;-60
2022/03/10 07:06:11;;;;;;;5.28;4.78;;;;;;;;;;4998562;28;20072;-60
2022/03/10 07:08:36;;;;;;;5.85;5.35;;;;;;;;;;4999314;28;20044;-59
2022/03/10 07:11:02;;;;;;;5.90;5.40;;;;;;;;;;4998300;28;20112;-59
2022/03/10 07:13:27;;;;;;;5.25;4.50;;;;;;;;;;4997683;28;20061;-59
2022/03/10 07:15:52;;;;;;;5.97;5.13;;;;;;;;;;4998410;28;20145;-59
2022/03/10 07:18:18;;;;;;;5.30;4.80;;;;;;;;;;4998999;28;20034;-60
2022/03/10 07:20:43;;;;;;;6.53;5.82;;;;;;;;;;5001490;28;20022;-59
2022/03/10 07:23:09;;;;;;;8.70;5.55;;;;;;;;;;4999640;28;20030;-59
2022/03/10 07:25:34;;;;;;;5.07;4.50;;;;;;;;;;5000401;28;20065;-60
2022/03/10 07:27:59;;;;;;;7.72;5.35;;;;;;;;;;4998904;28;20395;-59
2022/03/10 07:30:25;;;;;;;5.75;5.20;;;;;;;;;;4998625;28;20412;-60
2022/03/10 07:32:50;;;;;;;5.60;5.03;;;;;;;;;;4995910;28;20088;-60
2022/03/10 07:35:15;;;;;;;7.40;5.40;;;;;;;;;;4997864;28;20546;-59
2022/03/10 07:37:41;;;;;;;11.60;5.40;;;;;;;;;;4994554;28;20038;-59
2022/03/10 07:40:07;;;;;;;5.88;4.40;;;;;;;;;;4997250;28;20037;-59
2022/03/10 07:42:32;;;;;;;5.22;4.78;;;;;;;;;;4996117;28;20628;-60
2022/03/10 07:44:57;;;;;;;6.43;5.28;;;;;;;;;;5000021;28;20045;-59
2022/03/10 07:47:23;;;;;;;6.05;5.50;;;;;;;;;;4999402;28;20029;-57
2022/03/10 07:49:48;;;;;;;5.53;5.03;;;;;;;;;;4999838;28;20072;-59
2022/03/10 07:52:14;;;;;;;5.88;4.57;;;;;;;;;;5001462;28;20030;-60
2022/03/10 07:54:39;;;;;;;7.47;5.80;;;;;;;;;;4999794;28;20062;-57
2022/03/10 07:57:05;;;;;;;5.90;5.30;;;;;;;;;;4996476;28;20038;-58
2022/03/10 07:59:30;;;;;;;6.18;5.55;;;;;;;;;;4996505;28;20476;-59
2022/03/10 08:01:56;;;;;;;7.75;5.43;;;;;;;;;;5000399;28;20026;-59
2022/03/10 08:04:22;;;;;;;7.60;5.88;;;;;;;;;;4996257;28;20415;-59
2022/03/10 08:06:47;;;;;;;8.32;6.53;;;;;;;;;;4998641;28;20105;-59
2022/03/10 08:09:13;;;;;;;8.35;5.93;;;;;;;;;;5001272;28;20034;-58
2022/03/10 08:11:39;;;;;;;7.97;6.53;;;;;;;;;;4994662;28;20363;-59
2022/03/10 08:14:05;;;;;;;6.55;5.80;;;;;;;;;;4994967;28;20495;-59
2022/03/10 08:16:31;;;;;;;5.32;4.88;;;;;;;;;;4982902;28;20394;-59
2022/03/10 08:18:57;;;;;;;7.60;5.43;;;;;;;;;;4997205;28;20038;-59
2022/03/10 08:21:22;;;;;;;5.55;5.05;;;;;;;;;;4996371;28;20041;-59
2022/03/10 08:23:47;;;;;;;5.55;5.05;;;;;;;;;;5000779;28;20044;-59
2022/03/10 08:26:13;;;;;;;6.80;6.20;;;;;;;;;;4997506;28;20423;-59
2022/03/10 08:28:38;;;;;;;5.93;5.32;;;;;;;;;;4999343;28;20040;-59
2022/03/10 08:31:07;;;;;;;5.55;5.05;;;;;;;;;;4998762;28;20079;-59
2022/03/10 08:33:32;;;;;;;7.95;7.15;;;;;;;;;;5002810;28;20503;-59
2022/03/10 08:35:57;;;;;;;6.88;6.20;;;;;;;;;;4997002;28;20116;-59
2022/03/10 08:38:23;;;;;;;6.97;6.38;;;;;;;;;;4999229;28;20034;-59
2022/03/10 08:40:49;;;;;;;22.15;6.10;;;;;;;;;;4998491;28;20034;-59
2022/03/10 08:43:15;;;;;;;6.40;5.80;;;;;;;;;;4999686;28;20112;-59
2022/03/10 08:45:41;;;;;;;7.65;6.88;;;;;;;;;;4999425;28;20038;-59
2022/03/10 08:48:07;;;;;;;8.25;6.07;;;;;;;;;;4999255;28;20027;-59
2022/03/10 08:50:33;;;;;;;6.57;5.97;;;;;;;;;;5004626;28;20091;-60
2022/03/10 08:52:59;;;;;;;7.75;7.00;;;;;;;;;;4997247;28;20459;-59
2022/03/10 08:55:24;;;;;;;6.38;5.88;;;;;;;;;;5001464;28;20452;-59
2022/03/10 08:57:50;;;;;;;7.60;6.43;;;;;;;;;;4997280;28;20099;-59
2022/03/10 09:00:18;;;;;;;7.03;6.32;;;;;;;;;;4978613;28;20388;-60
2022/03/10 09:02:43;;;;;;;6.85;6.25;;;;;;;;;;4995589;28;20043;-60
2022/03/10 09:05:10;;;;;;;6.95;6.35;;;;;;;;;;4998355;28;20109;-60
2022/03/10 09:07:35;;;;;;;7.97;6.25;;;;;;;;;;4996175;28;20076;-60
2022/03/10 09:10:01;;;;;;;6.70;6.20;;;;;;;;;;4995684;28;20062;-60
2022/03/10 09:12:27;;;;;;;7.03;6.43;;;;;;;;;;4993848;28;20113;-59
2022/03/10 09:14:53;;;;;;;6.15;5.65;;;;;;;;;;4994903;28;20034;-60
2022/03/10 09:17:19;;;;;;;7.55;6.90;;;;;;;;;;4999779;28;20096;-60
2022/03/10 09:19:45;;;;;;;6.25;5.65;;;;;;;;;;4993500;28;20890;-59
2022/03/10 09:22:10;;;;;;;8.60;6.35;;;;;;;;;;4997336;28;20045;-59
2022/03/10 09:24:36;;;;;;;6.80;6.30;;;;;;;;;;4993716;28;20037;-59
2022/03/10 09:27:01;;;;;;;7.10;6.40;;;;;;;;;;4995151;28;20091;-59
2022/03/10 09:29:27;;;;;;;6.03;5.53;;;;;;;;;;4994787;28;20184;-59
2022/03/10 09:31:53;;;;;;;7.75;7.07;;;;;;;;;;4991805;28;20035;-59
2022/03/10 09:34:18;;;;;;;7.15;6.13;;;;;;;;;;4993657;28;20417;-57
2022/03/10 09:36:43;;;;;;;6.55;5.93;;;;;;;;;;4994400;28;20042;-58
2022/03/10 09:39:09;;;;;;;6.32;5.72;;;;;;;;;;4996742;28;20030;-59
2022/03/10 09:41:39;;;;;;;7.72;6.93;;;;;;;;;;4992436;28;20034;-60
2022/03/10 09:44:13;;;;;;;6.50;6.00;;;;;;;;;;4992367;28;20104;-60
2022/03/10 09:46:38;;;;;;;6.97;6.38;;;;;;;;;;4991919;28;20360;-60
2022/03/10 09:49:04;;;;;;;6.43;5.93;;;;;;;;;;4994100;28;20052;-60
2022/03/10 09:51:29;;;;;;;7.05;6.35;;;;;;;;;;4992300;28;20116;-60
2022/03/10 09:53:54;;;;;;;6.80;6.18;;;;;;;;;;4993737;28;20062;-60
2022/03/10 09:56:20;;;;;;;10.70;7.10;;;;;;;;;;4996940;28;20129;-60
2022/03/10 09:58:46;;;;;;;8.48;7.25;;;;;;;;;;4994257;28;20048;-59
2022/03/10 10:01:11;;;;;;;7.78;6.97;;;;;;;;;;4994108;28;20030;-60
2022/03/10 10:03:36;;;;;;;7.40;6.78;;;;;;;;;;4995450;28;20060;-60
2022/03/10 10:06:03;;;;;;;9.30;7.68;;;;;;;;;;4995845;28;20026;-61
2022/03/10 10:08:31;;;;;;;8.13;7.10;;;;;;;;;;4993948;28;20038;-60
2022/03/10 10:10:59;;;;;;;7.90;7.20;;;;;;;;;;4995205;28;20042;-60
2022/03/10 10:13:38;;;;;;;8.57;7.88;;;;;;;;;;4997132;28;20030;-60
2022/03/10 10:16:08;;;;;;;8.25;7.63;;;;;;;;;;4996729;28;20030;-61
2022/03/10 10:18:34;;;;;;;7.68;7.07;;;;;;;;;;4995782;28;20121;-60
2022/03/10 10:21:00;;;;;;;8.13;7.38;;;;;;;;;;4996215;28;20034;-61
2022/03/10 10:23:28;;;;;;;9.75;8.88;;;;;;;;;;4996545;28;20044;-60
2022/03/10 10:26:12;;;;;;;8.25;7.65;;;;;;;;;;4998772;28;20380;-60
2022/03/10 10:28:39;;;;;;;8.00;7.40;;;;;;;;;;4994241;28;20112;-61
2022/03/10 10:31:07;;;;;;;9.27;8.48;;;;;;;;;;4993636;28;20042;-60
2022/03/10 10:33:35;;;;;;;8.70;8.00;;;;;;;;;;4995782;28;20042;-60
2022/03/10 10:36:16;;;;;;;9.15;8.38;;;;;;;;;;4993227;28;20112;-60
2022/03/10 10:38:46;;;;;;;9.45;8.68;;;;;;;;;;4996796;28;20129;-60
2022/03/10 10:41:15;;;;;;;8.48;7.88;;;;;;;;;;4998680;28;20053;-60
2022/03/10 10:43:42;;;;;;;9.63;8.90;;;;;;;;;;4995128;28;20062;-59
2022/03/10 10:46:08;;;;;;;9.20;8.50;;;;;;;;;;4997147;28;20038;-59
2022/03/10 10:48:47;;;;;;;7.90;7.30;;;;;;;;;;4997866;28;20128;-59
2022/03/10 10:51:13;;;;;;;9.32;8.63;;;;;;;;;;4999953;28;20031;-62
2022/03/10 10:53:40;;;;;;;9.68;8.88;;;;;;;;;;5001167;28;20044;-64
2022/03/10 10:56:06;;;;;;;8.70;8.00;;;;;;;;;;4996671;28;20034;-62
2022/03/10 10:58:32;;;;;;;8.38;7.57;;;;;;;;;;4998352;28;20164;-62
2022/03/10 11:00:57;;;;;;;8.07;7.47;;;;;;;;;;5001270;28;20478;-64
2022/03/10 11:03:31;;;;;;;9.65;8.45;;;;;;;;;;4998972;28;20081;-63
2022/03/10 11:05:57;;;;;;;12.32;7.47;;;;;;;;;;5001136;28;20129;-64
2022/03/10 11:08:24;;;;;;;6.75;6.25;;;;;;;;;;5001281;28;20124;-62
2022/03/10 11:10:50;;;;;;;7.88;7.28;;;;;;;;;;4999924;28;20026;-62
2022/03/10 11:13:16;;;;;;;7.97;7.28;;;;;;;;;;5000575;28;20094;-62
2022/03/10 11:15:43;;;;;;;8.05;7.38;;;;;;;;;;4998780;28;20092;-63
2022/03/10 11:18:10;;;;;;;8.65;7.88;;;;;;;;;;5000803;28;20117;-62
2022/03/10 11:20:38;;;;;;;7.40;6.80;;;;;;;;;;5002506;28;20035;-63
2022/03/10 11:23:16;;;;;;;8.20;7.60;;;;;;;;;;4999700;28;20019;-62
2022/03/10 11:26:03;;;;;;;7.88;7.28;;;;;;;;;;4997327;28;20038;-63
2022/03/10 11:28:31;;;;;;;7.95;7.18;;;;;;;;;;4999516;28;20438;-62
2022/03/10 11:31:00;;;;;;;6.53;6.07;;;;;;;;;;4997775;28;20045;-62
2022/03/10 11:33:36;;;;;;;7.75;7.15;;;;;;;;;;4998761;28;20029;-64
2022/03/10 11:36:22;;;;;;;7.50;6.90;;;;;;;;;;4994567;28;20042;-64
2022/03/10 11:39:04;;;;;;;7.82;7.13;;;;;;;;;;4997252;28;20041;-64
2022/03/10 11:41:47;;;;;;;9.85;8.95;;;;;;;;;;5000332;28;20030;-63
2022/03/10 11:44:13;;;;;;;21.92;13.73;;;;;;;;;;4997937;28;20038;-63
2022/03/10 11:46:52;;;;;;;7.68;7.10;;;;;;;;;;4997874;28;20045;-63
2022/03/10 11:49:18;;;;;;;9.93;9.05;;;;;;;;;;4999737;28;20459;-63
2022/03/10 11:51:47;;;;;;;13.95;9.20;;;;;;;;;;5001758;28;20049;-63
2022/03/10 11:54:32;;;;;;;40.83;19.08;;;;;;;;;;5000181;28;20049;-63
2022/03/10 11:57:05;;;;;;;7.85;7.28;;;;;;;;;;5000909;28;20038;-64
2022/03/10 11:59:34;;;;;;;8.52;7.85;;;;;;;;;;4998350;28;20129;-62
2022/03/10 12:02:01;;;;;;;11.35;10.20;;;;;;;;;;4999227;28;20529;-63
2022/03/10 12:04:40;;;;;;;9.80;8.98;;;;;;;;;;4994945;28;20033;-62
2022/03/10 12:07:09;;;;;;;9.88;8.30;;;;;;;;;;4993450;28;20607;-62
2022/03/10 12:09:41;;;;;;;13.60;12.30;;;;;;;;;;4997795;28;20029;-61
2022/03/10 12:12:16;;;;;;;8.20;7.50;;;;;;;;;;4998065;28;20643;-62
2022/03/10 12:14:42;;;;;;;9.57;8.68;;;;;;;;;;4994784;28;20041;-63
2022/03/10 12:17:42;;;;;;;10.15;9.15;;;;;;;;;;4995564;28;20042;-63
2022/03/10 12:20:17;;;;;;;9.55;8.63;;;;;;;;;;4994319;28;20076;-63
2022/03/10 12:23:12;;;;;;;6.97;6.47;;;;;;;;;;4996282;28;20048;-63
2022/03/10 12:25:49;;;;;;;7.82;7.22;;;;;;;;;;4996109;28;20030;-63
2022/03/10 12:28:21;;;;;;;7.43;6.80;;;;;;;;;;4996903;28;20034;-62
2022/03/10 12:30:47;;;;;;;8.07;7.47;;;;;;;;;;4996537;28;20128;-62
2022/03/10 12:33:13;;;;;;;9.95;8.07;;;;;;;;;;4994915;28;20180;-62
2022/03/10 12:35:43;;;;;;;8.32;7.38;;;;;;;;;;4993391;28;20550;-62
2022/03/10 12:38:09;;;;;;;7.50;6.88;;;;;;;;;;4995249;28;20065;-63
2022/03/10 12:40:41;;;;;;;7.45;6.93;;;;;;;;;;4997296;28;20144;-62
2022/03/10 12:43:08;;;;;;;8.15;7.45;;;;;;;;;;4995292;28;20033;-63
2022/03/10 12:45:43;;;;;;;7.82;7.22;;;;;;;;;;4998189;28;20041;-63
2022/03/10 12:48:14;;;;;;;6.50;6.00;;;;;;;;;;4996555;28;20026;-62
2022/03/10 12:50:44;;;;;;;6.82;6.28;;;;;;;;;;4995048;28;20034;-63
2022/03/10 12:53:14;;;;;;;6.90;6.30;;;;;;;;;;4995658;28;20368;-63
2022/03/10 12:55:40;;;;;;;7.47;6.88;;;;;;;;;;4998257;28;20064;-63
2022/03/10 12:58:06;;;;;;;6.43;5.93;;;;;;;;;;4998114;28;20054;-63
2022/03/10 13:00:38;;;;;;;6.30;5.80;;;;;;;;;;4995743;28;20112;-63
2022/03/10 13:03:04;;;;;;;7.38;6.68;;;;;;;;;;5000250;28;20672;-65
2022/03/10 13:05:31;;;;;;;7.45;6.95;;;;;;;;;;4996399;28;20050;-63
2022/03/10 13:08:12;;;;;;;6.45;5.95;;;;;;;;;;4997680;28;20099;-63
2022/03/10 13:10:38;;;;;;;6.88;6.38;;;;;;;;;;5000185;28;20145;-63
2022/03/10 13:13:04;;;;;;;6.68;6.18;;;;;;;;;;4997891;28;20487;-64
2022/03/10 13:15:30;;;;;;;7.90;7.30;;;;;;;;;;4995422;28;20037;-61
2022/03/10 13:18:13;;;;;;;7.78;7.22;;;;;;;;;;4999395;28;20517;-60
2022/03/10 13:20:40;;;;;;;6.78;6.28;;;;;;;;;;4998105;28;20128;-60
2022/03/10 13:23:08;;;;;;;6.32;5.82;;;;;;;;;;4997364;28;20105;-63
2022/03/10 13:25:37;;;;;;;6.93;6.32;;;;;;;;;;4996235;28;20033;-63
2022/03/10 13:28:05;;;;;;;7.45;6.85;;;;;;;;;;4999842;28;20068;-60
2022/03/10 13:30:31;;;;;;;7.25;6.65;;;;;;;;;;4997472;28;20136;-60
2022/03/10 13:33:03;;;;;;;7.68;6.97;;;;;;;;;;4997074;28;20371;-60
2022/03/10 13:35:34;;;;;;;6.38;5.88;;;;;;;;;;4998959;28;20173;-61
2022/03/10 13:38:01;;;;;;;7.13;6.63;;;;;;;;;;4998597;28;20029;-59
2022/03/10 13:40:30;;;;;;;6.88;6.38;;;;;;;;;;4997556;28;20087;-61
2022/03/10 13:42:56;;;;;;;7.50;6.97;;;;;;;;;;4995435;28;20041;-62
2022/03/10 13:45:21;;;;;;;7.38;6.78;;;;;;;;;;4991084;28;20132;-63
2022/03/10 13:47:59;;;;;;;7.95;7.10;;;;;;;;;;4991514;28;20033;-63
2022/03/10 13:50:26;;;;;;;7.35;6.80;;;;;;;;;;4996554;28;20436;-63
2022/03/10 13:52:54;;;;;;;6.50;6.00;;;;;;;;;;4997189;28;20040;-62
2022/03/10 13:55:48;;;;;;;7.53;6.82;;;;;;;;;;4996052;28;20042;-62
2022/03/10 13:58:14;;;;;;;7.07;6.47;;;;;;;;;;4992383;28;20104;-61
2022/03/10 14:00:42;;;;;;;7.25;6.75;;;;;;;;;;4994619;28;20038;-62
2022/03/10 14:03:10;;;;;;;7.80;7.20;;;;;;;;;;4998715;28;20030;-61
2022/03/10 14:05:40;;;;;;;7.50;6.90;;;;;;;;;;4993925;28;20057;-61
2022/03/10 14:08:24;;;;;;;7.65;7.00;;;;;;;;;;4994730;28;20116;-62
2022/03/10 14:10:58;;;;;;;8.77;7.93;;;;;;;;;;4994708;28;20636;-61
2022/03/10 14:13:27;;;;;;;7.45;6.85;;;;;;;;;;4998166;28;20052;-62
2022/03/10 14:15:58;;;;;;;7.57;6.88;;;;;;;;;;4999181;28;20034;-62
2022/03/10 14:18:25;;;;;;;8.10;6.75;;;;;;;;;;4999594;28;20030;-62
2022/03/10 14:20:52;;;;;;;8.02;7.22;;;;;;;;;;4997272;28;20046;-62
2022/03/10 14:23:23;;;;;;;8.85;8.20;;;;;;;;;;4998044;28;20332;-62
2022/03/10 14:25:48;;;;;;;;;;;;;;;;;;4998870;28;20395;-62
2022/03/10 14:28:15;;;;;;;7.60;7.00;;;;;;;;;;4998463;28;19924;-62
2022/03/10 14:30:48;;;;;;;6.22;5.82;;;;;;;;;;4998751;28;20045;-62
2022/03/10 14:33:13;;;;;;;9.27;8.57;;;;;;;;;;5001183;28;20152;-62
2022/03/10 14:35:39;;;;;;;7.82;7.22;;;;;;;;;;5000069;28;20164;-62
2022/03/10 14:38:04;;;;;;;7.60;7.00;;;;;;;;;;5000116;28;20097;-63
2022/03/10 14:40:30;;;;;;;8.20;7.50;;;;;;;;;;4998314;28;20597;-62
2022/03/10 14:42:55;;;;;;;8.50;7.70;;;;;;;;;;5001697;28;20026;-61
2022/03/10 14:45:20;;;;;;;8.45;7.82;;;;;;;;;;4997028;28;20042;-62
2022/03/10 14:47:46;;;;;;;8.88;8.18;;;;;;;;;;5000337;28;20044;-62
2022/03/10 14:50:11;;;;;;;8.32;7.60;;;;;;;;;;4994035;28;20069;-62